sensor_id;sensor_type;location;lat;lon;timestamp;pressure;altitude;pressure_sealevel;temperature;humidity
60228;BME280;46091;46.512;6.626;2023-02-22T07:11:31;96811.88;;;9.76;67.86
60228;BME280;46091;46.512;6.626;2023-02-22T07:13:34;96808.75;;;10.08;67.43
60228;BME280;46091;46.512;6.626;2023-02-22T07:15:36;96811.22;;;10.31;67.10
60228;BME280;46091;46.512;6.626;2023-02-22T07:17:39;96816.19;;;10.47;66.80
60228;BME280;46091;46.512;6.626;2023-02-22T07:19:42;96822.84;;;10.65;66.53
60228;BME280;46091;46.512;6.626;2023-02-22T07:21:45;96819.69;;;10.76;66.44
60228;BME280;46091;46.512;6.626;2023-02-22T07:23:50;96807.91;;;10.85;66.31
60228;BME280;46091;46.512;6.626;2023-02-22T07:25:54;96820.78;;;10.95;66.27
60228;BME280;46091;46.512;6.626;2023-02-22T07:27:58;96818.19;;;11.01;66.03
60228;BME280;46091;46.512;6.626;2023-02-22T07:30:01;96820.03;;;11.07;65.98
60228;BME280;46091;46.512;6.626;2023-02-22T07:32:04;96820.50;;;11.11;65.98
60228;BME280;46091;46.512;6.626;2023-02-22T07:34:07;96822.94;;;11.13;65.76
60228;BME280;46091;46.512;6.626;2023-02-22T07:36:10;96823.56;;;11.15;65.70
60228;BME280;46091;46.512;6.626;2023-02-22T07:38:15;96823.16;;;11.18;65.74
60228;BME280;46091;46.512;6.626;2023-02-22T07:40:20;96827.22;;;11.20;65.38
60228;BME280;46091;46.512;6.626;2023-02-22T07:42:23;96825.03;;;11.24;65.54
60228;BME280;46091;46.512;6.626;2023-02-22T07:44:27;96818.72;;;11.25;65.44
60228;BME280;46091;46.512;6.626;2023-02-22T07:46:30;96826.88;;;11.30;65.40
60228;BME280;46091;46.512;6.626;2023-02-22T07:48:33;96825.84;;;11.31;65.21
60228;BME280;46091;46.512;6.626;2023-02-22T07:50:36;96819.19;;;11.35;65.33
60228;BME280;46091;46.512;6.626;2023-02-22T07:52:38;96820.81;;;11.36;65.19
60228;BME280;46091;46.512;6.626;2023-02-22T07:54:44;96822.66;;;11.42;65.15
60228;BME280;46091;46.512;6.626;2023-02-22T07:56:47;96820.00;;;11.42;64.99
60228;BME280;46091;46.512;6.626;2023-02-22T07:58:50;96823.28;;;11.44;65.12
60228;BME280;46091;46.512;6.626;2023-02-22T08:00:54;96820.44;;;11.46;64.98
60228;BME280;46091;46.512;6.626;2023-02-22T08:02:58;96829.00;;;11.48;65.17
60228;BME280;46091;46.512;6.626;2023-02-22T08:05:01;96818.41;;;11.48;64.84
60228;BME280;46091;46.512;6.626;2023-02-22T08:07:04;96827.19;;;11.55;65.06
60228;BME280;46091;46.512;6.626;2023-02-22T08:09:07;96816.81;;;11.60;64.87
60228;BME280;46091;46.512;6.626;2023-02-22T08:11:09;96815.59;;;11.62;64.75
60228;BME280;46091;46.512;6.626;2023-02-22T08:13:12;96822.72;;;11.62;64.74
60228;BME280;46091;46.512;6.626;2023-02-22T08:15:17;96826.19;;;11.62;64.99
60228;BME280;46091;46.512;6.626;2023-02-22T08:17:21;96830.72;;;11.69;64.62
60228;BME280;46091;46.512;6.626;2023-02-22T08:19:24;96828.88;;;11.76;64.61
60228;BME280;46091;46.512;6.626;2023-02-22T08:21:27;96836.06;;;11.82;64.39
60228;BME280;46091;46.512;6.626;2023-02-22T08:23:30;96829.97;;;11.88;64.39
60228;BME280;46091;46.512;6.626;2023-02-22T08:25:34;96836.31;;;11.93;64.23
60228;BME280;46091;46.512;6.626;2023-02-22T08:27:37;96831.00;;;12.00;64.13
60228;BME280;46091;46.512;6.626;2023-02-22T08:29:40;96832.88;;;12.06;63.83
60228;BME280;46091;46.512;6.626;2023-02-22T08:31:49;96836.53;;;12.05;63.99
60228;BME280;46091;46.512;6.626;2023-02-22T08:33:53;96833.47;;;12.08;64.06
60228;BME280;46091;46.512;6.626;2023-02-22T08:35:57;96839.00;;;12.13;63.79
60228;BME280;46091;46.512;6.626;2023-02-22T08:38:02;96838.19;;;12.19;63.89
60228;BME280;46091;46.512;6.626;2023-02-22T08:40:06;96836.56;;;12.25;63.46
60228;BME280;46091;46.512;6.626;2023-02-22T08:42:10;96843.28;;;12.28;63.32
60228;BME280;46091;46.512;6.626;2023-02-22T08:44:13;96841.03;;;12.31;63.27
60228;BME280;46091;46.512;6.626;2023-02-22T08:46:16;96835.53;;;12.33;63.26
60228;BME280;46091;46.512;6.626;2023-02-22T08:48:20;96838.19;;;12.33;63.11
60228;BME280;46091;46.512;6.626;2023-02-22T08:50:26;96839.81;;;12.34;63.29
60228;BME280;46091;46.512;6.626;2023-02-22T08:52:29;96839.44;;;12.37;63.14
60228;BME280;46091;46.512;6.626;2023-02-22T08:54:32;96835.34;;;12.41;62.90
60228;BME280;46091;46.512;6.626;2023-02-22T08:56:35;96835.75;;;12.44;62.69
60228;BME280;46091;46.512;6.626;2023-02-22T08:58:38;96838.41;;;12.44;62.65
60228;BME280;46091;46.512;6.626;2023-02-22T09:00:41;96834.94;;;12.44;62.50
60228;BME280;46091;46.512;6.626;2023-02-22T09:02:45;96845.53;;;12.44;62.50
60228;BME280;46091;46.512;6.626;2023-02-22T09:04:48;96838.41;;;12.44;62.42
60228;BME280;46091;46.512;6.626;2023-02-22T09:06:52;96836.56;;;12.45;62.47
60228;BME280;46091;46.512;6.626;2023-02-22T09:08:55;96837.00;;;12.48;62.43
60228;BME280;46091;46.512;6.626;2023-02-22T09:10:58;96840.03;;;12.52;62.36
60228;BME280;46091;46.512;6.626;2023-02-22T09:13:01;96834.34;;;12.48;62.22
60228;BME280;46091;46.512;6.626;2023-02-22T09:15:06;96832.91;;;12.46;62.16
60228;BME280;46091;46.512;6.626;2023-02-22T09:17:09;96835.16;;;12.49;62.06
60228;BME280;46091;46.512;6.626;2023-02-22T09:19:12;96827.81;;;12.51;62.15
60228;BME280;46091;46.512;6.626;2023-02-22T09:21:15;96826.78;;;12.52;61.99
60228;BME280;46091;46.512;6.626;2023-02-22T09:23:20;96829.44;;;12.52;61.90
60228;BME280;46091;46.512;6.626;2023-02-22T09:25:23;96822.72;;;12.49;61.55
60228;BME280;46091;46.512;6.626;2023-02-22T09:27:27;96825.56;;;12.48;61.70
60228;BME280;46091;46.512;6.626;2023-02-22T09:29:30;96825.56;;;12.48;61.82
60228;BME280;46091;46.512;6.626;2023-02-22T09:31:34;96823.53;;;12.50;61.69
60228;BME280;46091;46.512;6.626;2023-02-22T09:33:37;96819.44;;;12.54;61.62
60228;BME280;46091;46.512;6.626;2023-02-22T09:35:42;96821.06;;;12.55;61.24
60228;BME280;46091;46.512;6.626;2023-02-22T09:37:47;96828.63;;;12.58;61.13
60228;BME280;46091;46.512;6.626;2023-02-22T09:39:51;96826.38;;;12.55;61.09
60228;BME280;46091;46.512;6.626;2023-02-22T09:42:01;96825.97;;;12.58;61.01
60228;BME280;46091;46.512;6.626;2023-02-22T09:44:13;96825.78;;;12.60;61.00
60228;BME280;46091;46.512;6.626;2023-02-22T09:46:26;96826.59;;;12.60;61.12
60228;BME280;46091;46.512;6.626;2023-02-22T09:48:33;96824.53;;;12.62;60.78
60228;BME280;46091;46.512;6.626;2023-02-22T09:50:40;96823.09;;;12.66;61.14
60228;BME280;46091;46.512;6.626;2023-02-22T09:52:51;96825.53;;;12.74;60.82
60228;BME280;46091;46.512;6.626;2023-02-22T09:55:06;96815.31;;;12.78;60.64
60228;BME280;46091;46.512;6.626;2023-02-22T09:57:13;96812.88;;;12.76;60.52
60228;BME280;46091;46.512;6.626;2023-02-22T09:59:22;96815.53;;;12.76;60.55
60228;BME280;46091;46.512;6.626;2023-02-22T10:01:30;96814.94;;;12.74;60.29
60228;BME280;46091;46.512;6.626;2023-02-22T10:03:43;96816.56;;;12.75;60.55
60228;BME280;46091;46.512;6.626;2023-02-22T10:05:51;96804.72;;;12.78;60.50
60228;BME280;46091;46.512;6.626;2023-02-22T10:07:59;96813.31;;;12.80;60.16
60228;BME280;46091;46.512;6.626;2023-02-22T10:10:14;96800.44;;;12.83;60.10
60228;BME280;46091;46.512;6.626;2023-02-22T10:12:27;96812.69;;;12.85;60.05
60228;BME280;46091;46.512;6.626;2023-02-22T10:14:45;96813.69;;;12.83;60.27
60228;BME280;46091;46.512;6.626;2023-02-22T10:17:17;96810.84;;;12.85;59.94
60228;BME280;46091;46.512;6.626;2023-02-22T10:19:30;96807.16;;;12.86;60.14
60228;BME280;46091;46.512;6.626;2023-02-22T10:22:01;96804.28;;;12.88;59.86
60228;BME280;46091;46.512;6.626;2023-02-22T10:24:17;96801.03;;;12.92;59.80
60228;BME280;46091;46.512;6.626;2023-02-22T10:26:28;96800.00;;;12.93;59.49
60228;BME280;46091;46.512;6.626;2023-02-22T10:28:37;96802.47;;;12.95;59.59
60228;BME280;46091;46.512;6.626;2023-02-22T10:30:43;96801.44;;;12.96;59.75
60228;BME280;46091;46.512;6.626;2023-02-22T10:32:58;96798.78;;;12.96;59.64
60228;BME280;46091;46.512;6.626;2023-02-22T10:35:15;96801.44;;;12.96;59.34
60228;BME280;46091;46.512;6.626;2023-02-22T10:37:23;96795.09;;;12.97;59.45
60228;BME280;46091;46.512;6.626;2023-02-22T10:39:30;96802.63;;;13.00;59.19
60228;BME280;46091;46.512;6.626;2023-02-22T10:41:40;96802.63;;;13.00;59.55
60228;BME280;46091;46.512;6.626;2023-02-22T10:43:46;96800.59;;;13.02;59.19
60228;BME280;46091;46.512;6.626;2023-02-22T10:45:50;96801.00;;;13.05;59.12
60228;BME280;46091;46.512;6.626;2023-02-22T10:47:59;96789.16;;;13.08;59.10
60228;BME280;46091;46.512;6.626;2023-02-22T10:50:03;96798.53;;;13.10;59.14
60228;BME280;46091;46.512;6.626;2023-02-22T10:52:12;96799.75;;;13.15;59.10
60228;BME280;46091;46.512;6.626;2023-02-22T10:54:22;96794.03;;;13.18;58.91
60228;BME280;46091;46.512;6.626;2023-02-22T10:56:27;96792.00;;;13.20;58.93
60228;BME280;46091;46.512;6.626;2023-02-22T10:58:41;96796.50;;;13.19;58.76
60228;BME280;46091;46.512;6.626;2023-02-22T11:00:44;96795.69;;;13.19;58.73
60228;BME280;46091;46.512;6.626;2023-02-22T11:02:50;96794.84;;;13.18;58.97
60228;BME280;46091;46.512;6.626;2023-02-22T11:04:55;96793.84;;;13.19;58.76
60228;BME280;46091;46.512;6.626;2023-02-22T11:07:12;96789.13;;;13.21;58.65
60228;BME280;46091;46.512;6.626;2023-02-22T11:09:20;96786.47;;;13.21;58.80
60228;BME280;46091;46.512;6.626;2023-02-22T11:11:25;96789.72;;;13.23;58.59
60228;BME280;46091;46.512;6.626;2023-02-22T11:13:32;96781.78;;;13.23;58.58
60228;BME280;46091;46.512;6.626;2023-02-22T11:15:37;96786.06;;;13.24;58.48
60228;BME280;46091;46.512;6.626;2023-02-22T11:17:40;96780.56;;;13.26;58.71
60228;BME280;46091;46.512;6.626;2023-02-22T11:19:45;96784.63;;;13.28;58.67
60228;BME280;46091;46.512;6.626;2023-02-22T11:21:50;96782.34;;;13.32;58.38
60228;BME280;46091;46.512;6.626;2023-02-22T11:24:01;96767.44;;;13.31;58.51
60228;BME280;46091;46.512;6.626;2023-02-22T11:26:07;96772.34;;;13.34;58.48
60228;BME280;46091;46.512;6.626;2023-02-22T11:28:19;96777.44;;;13.35;58.47
60228;BME280;46091;46.512;6.626;2023-02-22T11:30:32;96772.13;;;13.35;58.30
60228;BME280;46091;46.512;6.626;2023-02-22T11:32:44;96770.28;;;13.36;58.41
60228;BME280;46091;46.512;6.626;2023-02-22T11:34:48;96771.94;;;13.37;58.32
60228;BME280;46091;46.512;6.626;2023-02-22T11:37:17;96771.72;;;13.38;58.18
60228;BME280;46091;46.512;6.626;2023-02-22T11:39:24;96762.31;;;13.36;58.02
60228;BME280;46091;46.512;6.626;2023-02-22T11:41:29;96758.22;;;13.40;58.28
60228;BME280;46091;46.512;6.626;2023-02-22T11:43:34;96763.72;;;13.45;58.03
60228;BME280;46091;46.512;6.626;2023-02-22T11:45:37;96758.19;;;13.47;57.98
60228;BME280;46091;46.512;6.626;2023-02-22T11:47:59;96758.00;;;13.48;58.12
60228;BME280;46091;46.512;6.626;2023-02-22T11:50:09;96754.50;;;13.48;57.82
60228;BME280;46091;46.512;6.626;2023-02-22T11:52:23;96753.50;;;13.49;58.16
60228;BME280;46091;46.512;6.626;2023-02-22T11:54:42;96759.19;;;13.52;58.09
60228;BME280;46091;46.512;6.626;2023-02-22T11:56:47;96753.66;;;13.54;57.86
60228;BME280;46091;46.512;6.626;2023-02-22T11:58:59;96747.31;;;13.55;57.85
60228;BME280;46091;46.512;6.626;2023-02-22T12:01:08;96745.25;;;13.57;57.88
60228;BME280;46091;46.512;6.626;2023-02-22T12:03:27;96752.19;;;13.58;57.57
60228;BME280;46091;46.512;6.626;2023-02-22T12:05:43;96739.53;;;13.60;57.64
60228;BME280;46091;46.512;6.626;2023-02-22T12:08:08;96739.91;;;13.63;57.58
60228;BME280;46091;46.512;6.626;2023-02-22T12:10:27;96744.81;;;13.66;57.28
60228;BME280;46091;46.512;6.626;2023-02-22T12:12:42;96738.88;;;13.64;57.52
60228;BME280;46091;46.512;6.626;2023-02-22T12:14:58;96732.53;;;13.65;57.65
60228;BME280;46091;46.512;6.626;2023-02-22T12:17:15;96741.53;;;13.71;57.47
60228;BME280;46091;46.512;6.626;2023-02-22T12:19:26;96732.91;;;13.76;57.43
60228;BME280;46091;46.512;6.626;2023-02-22T12:21:35;96728.41;;;13.76;57.27
60228;BME280;46091;46.512;6.626;2023-02-22T12:23:44;96727.38;;;13.77;57.38
60228;BME280;46091;46.512;6.626;2023-02-22T12:25:56;96734.16;;;13.73;57.22
60228;BME280;46091;46.512;6.626;2023-02-22T12:28:10;96736.63;;;13.68;57.25
60228;BME280;46091;46.512;6.626;2023-02-22T12:30:28;96732.75;;;13.64;57.08
60228;BME280;46091;46.512;6.626;2023-02-22T12:32:35;96723.16;;;13.63;57.06
60228;BME280;46091;46.512;6.626;2023-02-22T12:34:46;96726.84;;;13.62;57.51
60228;BME280;46091;46.512;6.626;2023-02-22T12:36:52;96731.72;;;13.65;57.17
60228;BME280;46091;46.512;6.626;2023-02-22T12:38:58;96720.28;;;13.64;57.37
60228;BME280;46091;46.512;6.626;2023-02-22T12:41:13;96726.41;;;13.65;57.30
60228;BME280;46091;46.512;6.626;2023-02-22T12:43:23;96728.25;;;13.64;57.43
60228;BME280;46091;46.512;6.626;2023-02-22T12:45:33;96730.50;;;13.67;57.06
60228;BME280;46091;46.512;6.626;2023-02-22T12:47:43;96724.16;;;13.68;57.07
60228;BME280;46091;46.512;6.626;2023-02-22T12:49:58;96718.44;;;13.65;57.08
60228;BME280;46091;46.512;6.626;2023-02-22T12:52:09;96729.28;;;13.63;57.33
60228;BME280;46091;46.512;6.626;2023-02-22T12:54:31;96728.69;;;13.61;57.27
60228;BME280;46091;46.512;6.626;2023-02-22T12:56:42;96723.59;;;13.60;57.07
60228;BME280;46091;46.512;6.626;2023-02-22T12:58:54;96726.25;;;13.60;57.32
60228;BME280;46091;46.512;6.626;2023-02-22T13:01:02;96717.88;;;13.56;57.17
60228;BME280;46091;46.512;6.626;2023-02-22T13:03:23;96716.25;;;13.55;57.02
60228;BME280;46091;46.512;6.626;2023-02-22T13:05:33;96720.75;;;13.55;57.39
60228;BME280;46091;46.512;6.626;2023-02-22T13:07:44;96719.13;;;13.54;57.08
60228;BME280;46091;46.512;6.626;2023-02-22T13:12:34;96720.59;;;13.50;57.42
60228;BME280;46091;46.512;6.626;2023-02-22T13:14:51;96726.94;;;13.49;57.65
60228;BME280;46091;46.512;6.626;2023-02-22T13:17:02;96718.16;;;13.48;57.35
60228;BME280;46091;46.512;6.626;2023-02-22T13:19:16;96722.84;;;13.46;57.58
60228;BME280;46091;46.512;6.626;2023-02-22T13:21:29;96724.09;;;13.44;57.63
60228;BME280;46091;46.512;6.626;2023-02-22T13:23:44;96726.53;;;13.45;57.61
60228;BME280;46091;46.512;6.626;2023-02-22T13:25:54;96722.25;;;13.44;57.81
60228;BME280;46091;46.512;6.626;2023-02-22T13:28:15;96726.16;;;13.42;57.55
60228;BME280;46091;46.512;6.626;2023-02-22T13:30:22;96721.88;;;13.40;57.82
60228;BME280;46091;46.512;6.626;2023-02-22T13:32:52;96726.38;;;13.40;57.80
60228;BME280;46091;46.512;6.626;2023-02-22T13:35:14;96720.69;;;13.36;57.78
60228;BME280;46091;46.512;6.626;2023-02-22T13:37:34;96718.63;;;13.38;58.09
60228;BME280;46091;46.512;6.626;2023-02-22T13:39:49;96721.28;;;13.38;58.19
60228;BME280;46091;46.512;6.626;2023-02-22T13:42:03;96714.13;;;13.39;57.96
60228;BME280;46091;46.512;6.626;2023-02-22T13:47:19;96712.28;;;13.39;58.39
60228;BME280;46091;46.512;6.626;2023-02-22T13:49:39;96710.66;;;13.38;58.10
60228;BME280;46091;46.512;6.626;2023-02-22T13:51:50;96710.06;;;13.36;58.25
60228;BME280;46091;46.512;6.626;2023-02-22T13:53:57;96705.34;;;13.38;58.28
60228;BME280;46091;46.512;6.626;2023-02-22T13:56:01;96720.47;;;13.38;58.61
60228;BME280;46091;46.512;6.626;2023-02-22T13:58:06;96713.31;;;13.38;58.62
60228;BME280;46091;46.512;6.626;2023-02-22T14:00:39;96705.75;;;13.35;58.63
60228;BME280;46091;46.512;6.626;2023-02-22T14:03:00;96714.34;;;13.37;58.93
60228;BME280;46091;46.512;6.626;2023-02-22T14:05:33;96717.00;;;13.37;58.85
60228;BME280;46091;46.512;6.626;2023-02-22T14:07:55;96715.97;;;13.38;59.04
60228;BME280;46091;46.512;6.626;2023-02-22T14:09:59;96711.88;;;13.36;58.81
60228;BME280;46091;46.512;6.626;2023-02-22T14:12:02;96713.72;;;13.35;59.18
60228;BME280;46091;46.512;6.626;2023-02-22T14:14:13;96716.78;;;13.32;59.35
60228;BME280;46091;46.512;6.626;2023-02-22T14:16:21;96713.13;;;13.33;59.08
60228;BME280;46091;46.512;6.626;2023-02-22T14:18:25;96710.66;;;13.32;59.53
60228;BME280;46091;46.512;6.626;2023-02-22T14:20:30;96706.59;;;13.29;59.41
60228;BME280;46091;46.512;6.626;2023-02-22T14:22:36;96702.31;;;13.28;59.43
60228;BME280;46091;46.512;6.626;2023-02-22T14:24:41;96709.47;;;13.28;59.42
60228;BME280;46091;46.512;6.626;2023-02-22T14:26:58;96700.69;;;13.27;59.54
60228;BME280;46091;46.512;6.626;2023-02-22T14:29:14;96700.69;;;13.27;59.86
60228;BME280;46091;46.512;6.626;2023-02-22T14:31:19;96700.09;;;13.25;59.75
60228;BME280;46091;46.512;6.626;2023-02-22T14:33:52;96698.84;;;13.28;59.80
60228;BME280;46091;46.512;6.626;2023-02-22T14:35:55;96693.56;;;13.28;59.74
60228;BME280;46091;46.512;6.626;2023-02-22T14:37:59;96699.66;;;13.28;60.12
60228;BME280;46091;46.512;6.626;2023-02-22T14:40:07;96699.66;;;13.28;60.03
60228;BME280;46091;46.512;6.626;2023-02-22T14:42:27;96703.34;;;13.27;60.06
60228;BME280;46091;46.512;6.626;2023-02-22T14:44:36;96701.91;;;13.25;60.15
60228;BME280;46091;46.512;6.626;2023-02-22T14:46:44;96712.34;;;13.26;60.03
60228;BME280;46091;46.512;6.626;2023-02-22T14:48:56;96704.75;;;13.30;60.18
60228;BME280;46091;46.512;6.626;2023-02-22T14:51:03;96704.34;;;13.33;59.99
60228;BME280;46091;46.512;6.626;2023-02-22T14:53:29;96706.19;;;13.32;60.30
60228;BME280;46091;46.512;6.626;2023-02-22T14:55:40;96705.34;;;13.38;60.13
60228;BME280;46091;46.512;6.626;2023-02-22T14:57:52;96703.28;;;13.40;60.24
60228;BME280;46091;46.512;6.626;2023-02-22T15:00:06;96699.38;;;13.43;60.25
60228;BME280;46091;46.512;6.626;2023-02-22T15:02:23;96699.16;;;13.45;60.47
60228;BME280;46091;46.512;6.626;2023-02-22T15:04:29;96695.47;;;13.46;60.31
60228;BME280;46091;46.512;6.626;2023-02-22T15:06:32;96698.13;;;13.46;60.48
60228;BME280;46091;46.512;6.626;2023-02-22T15:08:36;96691.19;;;13.45;60.61
60228;BME280;46091;46.512;6.626;2023-02-22T15:10:43;96692.22;;;13.44;60.64
60228;BME280;46091;46.512;6.626;2023-02-22T15:12:57;96704.69;;;13.43;60.67
60228;BME280;46091;46.512;6.626;2023-02-22T15:15:14;96695.91;;;13.43;60.55
60228;BME280;46091;46.512;6.626;2023-02-22T15:17:22;96697.09;;;13.47;60.68
60228;BME280;46091;46.512;6.626;2023-02-22T15:19:38;96694.44;;;13.47;60.52
60228;BME280;46091;46.512;6.626;2023-02-22T15:21:44;96691.78;;;13.47;60.34
60228;BME280;46091;46.512;6.626;2023-02-22T15:23:55;96701.56;;;13.53;60.28
60228;BME280;46091;46.512;6.626;2023-02-22T15:26:00;96700.75;;;13.52;60.57
60228;BME280;46091;46.512;6.626;2023-02-22T15:28:05;96691.19;;;13.45;60.48
60228;BME280;46091;46.512;6.626;2023-02-22T15:30:18;96704.47;;;13.45;60.81
60228;BME280;46091;46.512;6.626;2023-02-22T15:32:30;96704.09;;;13.41;60.84
60228;BME280;46091;46.512;6.626;2023-02-22T15:34:34;96696.34;;;13.39;60.57
60228;BME280;46091;46.512;6.626;2023-02-22T15:36:41;96701.66;;;13.39;60.84
60228;BME280;46091;46.512;6.626;2023-02-22T15:38:48;96702.25;;;13.42;60.70
60228;BME280;46091;46.512;6.626;2023-02-22T15:41:00;96704.91;;;13.42;60.72
60228;BME280;46091;46.512;6.626;2023-02-22T15:43:06;96706.75;;;13.41;61.07
60228;BME280;46091;46.512;6.626;2023-02-22T15:45:14;96705.13;;;13.40;60.96
60228;BME280;46091;46.512;6.626;2023-02-22T15:47:20;96706.75;;;13.41;60.82
60228;BME280;46091;46.512;6.626;2023-02-22T15:49:23;96702.09;;;13.36;60.83
60228;BME280;46091;46.512;6.626;2023-02-22T15:51:28;96696.78;;;13.36;61.04
60228;BME280;46091;46.512;6.626;2023-02-22T15:53:36;96693.09;;;13.37;61.00
60228;BME280;46091;46.512;6.626;2023-02-22T15:55:44;96705.34;;;13.38;61.18
60228;BME280;46091;46.512;6.626;2023-02-22T15:57:50;96692.88;;;13.39;61.11
60228;BME280;46091;46.512;6.626;2023-02-22T15:59:56;96692.88;;;13.39;61.05
60228;BME280;46091;46.512;6.626;2023-02-22T16:01:59;96691.03;;;13.39;61.19
60228;BME280;46091;46.512;6.626;2023-02-22T16:04:02;96693.09;;;13.37;61.05
60228;BME280;46091;46.512;6.626;2023-02-22T16:06:08;96703.31;;;13.34;61.30
60228;BME280;46091;46.512;6.626;2023-02-22T16:08:15;96691.50;;;13.30;61.10
60228;BME280;46091;46.512;6.626;2023-02-22T16:10:24;96686.63;;;13.27;61.34
60228;BME280;46091;46.512;6.626;2023-02-22T16:12:27;96688.47;;;13.20;61.51
60228;BME280;46091;46.512;6.626;2023-02-22T16:14:40;96692.78;;;13.14;61.33
60228;BME280;46091;46.512;6.626;2023-02-22T16:16:46;96702.38;;;13.15;61.46
60228;BME280;46091;46.512;6.626;2023-02-22T16:18:50;96694.41;;;13.15;61.65
60228;BME280;46091;46.512;6.626;2023-02-22T16:21:02;96699.09;;;13.13;61.34
60228;BME280;46091;46.512;6.626;2023-02-22T16:23:22;96688.91;;;13.10;61.50
60228;BME280;46091;46.512;6.626;2023-02-22T16:25:30;96694.19;;;13.10;61.65
60228;BME280;46091;46.512;6.626;2023-02-22T16:27:40;96696.84;;;13.10;61.51
60228;BME280;46091;46.512;6.626;2023-02-22T16:30:06;96693.78;;;13.13;61.84
60228;BME280;46091;46.512;6.626;2023-02-22T16:32:25;96694.19;;;13.17;61.52
60228;BME280;46091;46.512;6.626;2023-02-22T16:34:28;96692.34;;;13.17;61.79
60228;BME280;46091;46.512;6.626;2023-02-22T16:36:39;96691.53;;;13.17;61.50
60228;BME280;46091;46.512;6.626;2023-02-22T16:38:43;96689.91;;;13.16;61.83
60228;BME280;46091;46.512;6.626;2023-02-22T16:40:50;96691.75;;;13.15;61.82
60228;BME280;46091;46.512;6.626;2023-02-22T16:42:55;96685.41;;;13.16;61.57
60228;BME280;46091;46.512;6.626;2023-02-22T16:44:58;96689.69;;;13.17;62.02
60228;BME280;46091;46.512;6.626;2023-02-22T16:47:00;96683.97;;;13.20;61.62
60228;BME280;46091;46.512;6.626;2023-02-22T16:49:05;96685.38;;;13.23;61.62
60228;BME280;46091;46.512;6.626;2023-02-22T16:51:11;96683.53;;;13.23;61.72
60228;BME280;46091;46.512;6.626;2023-02-22T16:53:20;96689.50;;;13.25;61.58
60228;BME280;46091;46.512;6.626;2023-02-22T16:55:25;96685.00;;;13.26;61.90
60228;BME280;46091;46.512;6.626;2023-02-22T16:57:30;96678.44;;;13.28;61.79
60228;BME280;46091;46.512;6.626;2023-02-22T16:59:36;96683.75;;;13.28;61.65
60228;BME280;46091;46.512;6.626;2023-02-22T17:01:40;96689.06;;;13.28;61.78
60228;BME280;46091;46.512;6.626;2023-02-22T17:03:43;96686.19;;;13.30;61.73
60228;BME280;46091;46.512;6.626;2023-02-22T17:05:48;96682.28;;;13.32;61.95
60228;BME280;46091;46.512;6.626;2023-02-22T17:07:51;96690.03;;;13.34;61.69
60228;BME280;46091;46.512;6.626;2023-02-22T17:09:54;96690.63;;;13.36;61.88
60228;BME280;46091;46.512;6.626;2023-02-22T17:11:59;96694.94;;;13.37;61.58
60228;BME280;46091;46.512;6.626;2023-02-22T17:14:02;96697.59;;;13.37;61.87
60228;BME280;46091;46.512;6.626;2023-02-22T17:16:05;96686.75;;;13.38;61.92
60228;BME280;46091;46.512;6.626;2023-02-22T17:18:11;96688.59;;;13.38;61.71
60228;BME280;46091;46.512;6.626;2023-02-22T17:20:17;96692.06;;;13.38;61.92
60228;BME280;46091;46.512;6.626;2023-02-22T17:22:31;96698.78;;;13.41;61.94
60228;BME280;46091;46.512;6.626;2023-02-22T17:24:34;96695.31;;;13.40;61.93
60228;BME280;46091;46.512;6.626;2023-02-22T17:26:39;96694.28;;;13.42;61.71
60228;BME280;46091;46.512;6.626;2023-02-22T17:28:42;96697.97;;;13.40;62.06
60228;BME280;46091;46.512;6.626;2023-02-22T17:30:46;96696.72;;;13.43;61.92
60228;BME280;46091;46.512;6.626;2023-02-22T17:32:50;96698.34;;;13.44;61.96
60228;BME280;46091;46.512;6.626;2023-02-22T17:34:53;96697.75;;;13.42;61.84
60228;BME280;46091;46.512;6.626;2023-02-22T17:36:56;96697.75;;;13.42;62.01
60228;BME280;46091;46.512;6.626;2023-02-22T17:39:00;96702.25;;;13.42;61.97
60228;BME280;46091;46.512;6.626;2023-02-22T17:41:05;96698.41;;;13.37;61.73
60228;BME280;46091;46.512;6.626;2023-02-22T17:43:08;96708.00;;;13.38;62.06
60228;BME280;46091;46.512;6.626;2023-02-22T17:45:12;96718.03;;;13.36;61.93
60228;BME280;46091;46.512;6.626;2023-02-22T17:47:15;96706.78;;;13.34;62.14
60228;BME280;46091;46.512;6.626;2023-02-22T17:49:18;96703.53;;;13.32;62.10
60228;BME280;46091;46.512;6.626;2023-02-22T17:51:22;96713.53;;;13.30;62.17
60228;BME280;46091;46.512;6.626;2023-02-22T17:53:25;96714.38;;;13.24;62.21
60228;BME280;46091;46.512;6.626;2023-02-22T17:55:30;96712.97;;;13.22;62.32
60228;BME280;46091;46.512;6.626;2023-02-22T17:57:34;96712.75;;;13.23;62.37
60228;BME280;46091;46.512;6.626;2023-02-22T17:59:37;96712.75;;;13.23;62.20
60228;BME280;46091;46.512;6.626;2023-02-22T18:01:41;96712.75;;;13.23;62.33
60228;BME280;46091;46.512;6.626;2023-02-22T18:03:44;96712.34;;;13.26;62.05
60228;BME280;46091;46.512;6.626;2023-02-22T18:05:48;96716.84;;;13.26;61.98
60228;BME280;46091;46.512;6.626;2023-02-22T18:07:51;96716.84;;;13.26;62.01
60228;BME280;46091;46.512;6.626;2023-02-22T18:09:54;96716.84;;;13.26;62.45
60228;BME280;46091;46.512;6.626;2023-02-22T18:11:58;96716.03;;;13.25;62.17
60228;BME280;46091;46.512;6.626;2023-02-22T18:14:01;96718.88;;;13.24;62.24
60228;BME280;46091;46.512;6.626;2023-02-22T18:16:05;96713.19;;;13.20;62.29
60228;BME280;46091;46.512;6.626;2023-02-22T18:18:08;96717.69;;;13.20;62.56
60228;BME280;46091;46.512;6.626;2023-02-22T18:20:12;96719.53;;;13.19;62.52
60228;BME280;46091;46.512;6.626;2023-02-22T18:22:15;96715.84;;;13.20;62.50
60228;BME280;46091;46.512;6.626;2023-02-22T18:24:18;96716.66;;;13.21;62.35
60228;BME280;46091;46.512;6.626;2023-02-22T18:26:23;96717.69;;;13.20;62.47
60228;BME280;46091;46.512;6.626;2023-02-22T18:28:28;96702.34;;;13.22;62.30
60228;BME280;46091;46.512;6.626;2023-02-22T18:30:32;96710.09;;;13.23;62.25
60228;BME280;46091;46.512;6.626;2023-02-22T18:32:36;96706.84;;;13.21;62.70
60228;BME280;46091;46.512;6.626;2023-02-22T18:34:39;96704.19;;;13.21;62.33